createdAt,value
2017-07-21T00:00:57.876Z,1003.78
2017-07-21T00:01:57.786Z,1003.78
2017-07-21T00:02:57.834Z,1003.79
2017-07-21T00:03:57.838Z,1003.73
2017-07-21T00:04:57.808Z,1003.81
2017-07-21T00:05:57.800Z,1003.76
2017-07-21T00:06:57.779Z,1003.79
2017-07-21T00:07:57.808Z,1003.80
2017-07-21T00:08:57.786Z,1003.85
2017-07-21T00:09:57.806Z,1003.90
2017-07-21T00:10:57.761Z,1003.87
2017-07-21T00:11:57.787Z,1003.94
2017-07-21T00:12:57.814Z,1003.86
2017-07-21T00:13:57.803Z,1003.83
2017-07-21T00:14:57.860Z,1003.85
2017-07-21T00:15:57.887Z,1003.85
2017-07-21T00:16:57.882Z,1003.83
2017-07-21T00:17:57.815Z,1003.86
2017-07-21T00:18:57.860Z,1003.87
2017-07-21T00:19:57.817Z,1003.87
2017-07-21T00:20:57.798Z,1003.90
2017-07-21T00:21:57.819Z,1003.90
2017-07-21T00:22:57.847Z,1003.92
2017-07-21T00:23:57.886Z,1003.92
2017-07-21T00:24:57.862Z,1003.89
2017-07-21T00:25:57.816Z,1003.92
2017-07-21T00:26:57.850Z,1003.91
2017-07-21T00:27:57.853Z,1003.96
2017-07-21T00:28:57.853Z,1003.90
2017-07-21T00:29:57.847Z,1003.95
2017-07-21T00:30:57.820Z,1003.99
2017-07-21T00:31:57.850Z,1004.01
2017-07-21T00:32:57.854Z,1004.02
2017-07-21T00:33:57.797Z,1004.00
2017-07-21T00:34:57.793Z,1004.01
2017-07-21T00:35:57.855Z,1004.00
2017-07-21T00:36:57.806Z,1004.01
2017-07-21T00:37:57.857Z,1004.01
2017-07-21T00:38:57.797Z,1003.98
2017-07-21T00:39:57.799Z,1004.00
2017-07-21T00:40:57.798Z,1004.01
2017-07-21T00:41:57.796Z,1003.98
2017-07-21T00:42:57.801Z,1004.00
2017-07-21T00:43:57.863Z,1003.97
2017-07-21T00:44:57.799Z,1004.03
2017-07-21T00:45:57.824Z,1004.05
2017-07-21T00:46:57.936Z,1003.99
2017-07-21T00:47:57.833Z,1004.00
2017-07-21T00:48:57.906Z,1004.01
2017-07-21T00:49:57.841Z,1004.00
2017-07-21T00:50:57.849Z,1004.00
2017-07-21T00:51:57.837Z,1003.99
2017-07-21T00:52:57.847Z,1004.01
2017-07-21T00:53:57.814Z,1003.96
2017-07-21T00:54:57.873Z,1004.05
2017-07-21T00:55:57.865Z,1004.02
2017-07-21T00:56:57.833Z,1004.04
2017-07-21T00:57:57.871Z,1004.04
2017-07-21T00:58:57.909Z,1003.98
2017-07-21T00:59:57.871Z,1004.02
2017-07-21T01:00:57.803Z,1004.04
2017-07-21T01:01:57.872Z,1004.06
2017-07-21T01:02:57.838Z,1004.02
2017-07-21T01:03:57.869Z,1004.02
2017-07-21T01:04:57.839Z,1004.05
2017-07-21T01:05:57.894Z,1004.04
2017-07-21T01:06:57.876Z,1004.07
2017-07-21T01:07:57.821Z,1004.08
2017-07-21T01:08:57.917Z,1004.04
2017-07-21T01:09:57.887Z,1004.03
2017-07-21T01:10:57.857Z,1004.01
2017-07-21T01:11:57.917Z,1004.03
2017-07-21T01:12:57.853Z,1004.05
2017-07-21T01:13:57.854Z,1004.04
2017-07-21T01:14:57.863Z,1004.07
2017-07-21T01:15:57.853Z,1004.09
2017-07-21T01:16:57.884Z,1004.08
2017-07-21T01:17:57.904Z,1004.09
2017-07-21T01:18:57.895Z,1004.08
2017-07-21T01:19:57.880Z,1004.08
2017-07-21T01:20:57.953Z,1004.11
2017-07-21T01:21:57.854Z,1004.06
2017-07-21T01:22:57.895Z,1004.06
2017-07-21T01:23:57.831Z,1004.07
2017-07-21T01:24:57.829Z,1004.09
2017-07-21T01:25:57.899Z,1004.11
2017-07-21T01:26:57.898Z,1004.07
2017-07-21T01:27:57.900Z,1004.12
2017-07-21T01:28:57.920Z,1004.13
2017-07-21T01:29:57.885Z,1004.11
2017-07-21T01:30:57.838Z,1004.09
2017-07-21T01:31:57.883Z,1004.10
2017-07-21T01:32:57.901Z,1003.98
2017-07-21T01:33:57.928Z,1004.00
2017-07-21T01:34:57.886Z,1004.04
2017-07-21T01:35:57.888Z,1004.04
2017-07-21T01:36:57.870Z,1004.04
2017-07-21T01:37:57.899Z,1004.03
2017-07-21T01:38:57.867Z,1004.02
2017-07-21T01:39:57.924Z,1004.07
2017-07-21T01:40:57.926Z,1004.07
2017-07-21T01:41:57.856Z,1004.05
2017-07-21T01:42:57.904Z,1004.05
2017-07-21T01:43:57.873Z,1004.06
2017-07-21T01:44:57.876Z,1004.08
2017-07-21T01:45:57.896Z,1004.09
2017-07-21T01:46:57.929Z,1004.11
2017-07-21T01:47:57.931Z,1004.16
2017-07-21T01:48:57.904Z,1004.14
2017-07-21T01:49:57.938Z,1004.14
2017-07-21T01:50:57.898Z,1004.16
2017-07-21T01:51:57.904Z,1004.17
2017-07-21T01:52:57.880Z,1004.19
2017-07-21T01:53:57.846Z,1004.21
2017-07-21T01:54:57.939Z,1004.26
2017-07-21T01:55:57.902Z,1004.26
2017-07-21T01:56:57.879Z,1004.25
2017-07-21T01:57:57.910Z,1004.26
2017-07-21T01:59:57.915Z,1004.25
2017-07-21T02:00:57.924Z,1004.28
2017-07-21T02:01:57.883Z,1004.27
2017-07-21T02:02:57.847Z,1004.30
2017-07-21T02:03:57.887Z,1004.24
2017-07-21T02:04:57.910Z,1004.25
2017-07-21T02:05:57.898Z,1004.32
2017-07-21T02:06:57.848Z,1004.33
2017-07-21T02:07:57.834Z,1004.37
2017-07-21T02:08:57.867Z,1004.37
2017-07-21T02:09:57.849Z,1004.40
2017-07-21T02:10:57.834Z,1004.34
2017-07-21T02:11:57.837Z,1004.41
2017-07-21T02:12:57.853Z,1004.39
2017-07-21T02:13:57.904Z,1004.40
2017-07-21T02:14:57.927Z,1004.39
2017-07-21T02:15:57.856Z,1004.39
2017-07-21T02:16:57.894Z,1004.44
2017-07-21T02:17:57.880Z,1004.45
2017-07-21T02:18:57.984Z,1004.44
2017-07-21T02:19:57.932Z,1004.44
2017-07-21T02:20:57.931Z,1004.43
2017-07-21T02:21:57.897Z,1004.42
2017-07-21T02:22:57.888Z,1004.45
2017-07-21T02:23:57.893Z,1004.40
2017-07-21T02:24:57.895Z,1004.42
2017-07-21T02:25:57.916Z,1004.40
2017-07-21T02:26:57.855Z,1004.40
2017-07-21T02:27:57.857Z,1004.41
2017-07-21T02:28:57.921Z,1004.43
2017-07-21T02:29:57.886Z,1004.44
2017-07-21T02:30:57.918Z,1004.45
2017-07-21T02:31:57.886Z,1004.43
2017-07-21T02:32:57.920Z,1004.45
2017-07-21T02:33:57.889Z,1004.51
2017-07-21T02:34:57.923Z,1004.45
2017-07-21T02:35:57.922Z,1004.47
2017-07-21T02:36:57.893Z,1004.45
2017-07-21T02:37:57.865Z,1004.44
2017-07-21T02:38:57.931Z,1004.51
2017-07-21T02:39:57.868Z,1004.47
2017-07-21T02:40:57.874Z,1004.48
2017-07-21T02:41:57.864Z,1004.44
2017-07-21T02:42:57.890Z,1004.48
2017-07-21T02:43:57.927Z,1004.48
2017-07-21T02:44:57.867Z,1004.52
2017-07-21T02:45:57.948Z,1004.54
2017-07-21T02:46:57.941Z,1004.56
2017-07-21T02:47:57.944Z,1004.52
2017-07-21T02:48:57.929Z,1004.50
2017-07-21T02:49:57.945Z,1004.56
2017-07-21T02:50:57.971Z,1004.58
2017-07-21T02:51:57.917Z,1004.54
2017-07-21T02:52:57.880Z,1004.56
2017-07-21T02:53:57.909Z,1004.57
2017-07-21T02:54:57.908Z,1004.57
2017-07-21T02:55:57.916Z,1004.58
2017-07-21T02:56:57.875Z,1004.58
2017-07-21T02:57:57.934Z,1004.55
2017-07-21T02:58:57.900Z,1004.61
2017-07-21T02:59:57.911Z,1004.66
2017-07-21T03:00:57.942Z,1004.66
2017-07-21T03:01:57.938Z,1004.58
2017-07-21T03:02:57.877Z,1004.62
2017-07-21T03:03:57.877Z,1004.56
2017-07-21T03:04:57.881Z,1004.56
2017-07-21T03:05:57.911Z,1004.56
2017-07-21T03:06:57.950Z,1004.57
2017-07-21T03:07:57.912Z,1004.55
2017-07-21T03:08:57.910Z,1004.60
2017-07-21T03:09:57.882Z,1004.61
2017-07-21T03:10:57.885Z,1004.62
2017-07-21T03:11:57.881Z,1004.60
2017-07-21T03:12:57.888Z,1004.65
2017-07-21T03:13:57.945Z,1004.66
2017-07-21T03:14:57.883Z,1004.62
2017-07-21T03:15:57.927Z,1004.69
2017-07-21T03:16:57.959Z,1004.70
2017-07-21T03:17:57.983Z,1004.63
2017-07-21T03:18:58.059Z,1004.65
2017-07-21T03:19:58.033Z,1004.66
2017-07-21T03:20:57.946Z,1004.66
2017-07-21T03:21:57.893Z,1004.65
2017-07-21T03:22:57.932Z,1004.63
2017-07-21T03:23:57.906Z,1004.63
2017-07-21T03:24:57.895Z,1004.67
2017-07-21T03:25:57.904Z,1004.69
2017-07-21T03:26:57.908Z,1004.70
2017-07-21T03:27:57.910Z,1004.69
2017-07-21T03:28:58.026Z,1004.69
2017-07-21T03:29:57.961Z,1004.71
2017-07-21T03:30:57.961Z,1004.70
2017-07-21T03:31:57.956Z,1004.65
2017-07-21T03:32:57.976Z,1004.68
2017-07-21T03:33:57.958Z,1004.72
2017-07-21T03:34:57.933Z,1004.69
2017-07-21T03:35:57.902Z,1004.65
2017-07-21T03:36:57.928Z,1004.70
2017-07-21T03:37:57.961Z,1004.66
2017-07-21T03:38:57.928Z,1004.65
2017-07-21T03:39:57.928Z,1004.69
2017-07-21T03:40:57.961Z,1004.67
2017-07-21T03:41:57.901Z,1004.72
2017-07-21T03:42:57.960Z,1004.70
2017-07-21T03:43:57.933Z,1004.67
2017-07-21T03:44:57.906Z,1004.74
2017-07-21T03:45:57.906Z,1004.73
2017-07-21T03:46:57.904Z,1004.67
2017-07-21T03:47:57.970Z,1004.69
2017-07-21T03:48:57.933Z,1004.66
2017-07-21T03:49:57.964Z,1004.68
2017-07-21T03:50:57.916Z,1004.67
2017-07-21T03:51:57.905Z,1004.73
2017-07-21T03:52:57.930Z,1004.70
2017-07-21T03:53:57.935Z,1004.73
2017-07-21T03:54:57.978Z,1004.78
2017-07-21T03:55:58.005Z,1004.78
2017-07-21T03:56:57.997Z,1004.81
2017-07-21T03:57:57.941Z,1004.79
2017-07-21T03:58:57.947Z,1004.76
2017-07-21T03:59:57.914Z,1004.78
2017-07-21T04:00:57.989Z,1004.80
2017-07-21T04:01:58.005Z,1004.77
2017-07-21T04:02:58.013Z,1004.78
2017-07-21T04:03:57.919Z,1004.80
2017-07-21T04:04:57.975Z,1004.81
2017-07-21T04:05:58.020Z,1004.80
2017-07-21T04:06:57.979Z,1004.87
2017-07-21T04:07:57.987Z,1004.87
2017-07-21T04:08:57.984Z,1004.89
2017-07-21T04:09:57.948Z,1004.89
2017-07-21T04:10:57.960Z,1004.87
2017-07-21T04:11:57.922Z,1004.89
2017-07-21T04:12:57.991Z,1004.87
2017-07-21T04:13:57.951Z,1004.92
2017-07-21T04:14:57.954Z,1004.93
2017-07-21T04:15:58.009Z,1004.91
2017-07-21T04:16:57.924Z,1004.91
2017-07-21T04:17:58.005Z,1004.90
2017-07-21T04:18:57.933Z,1004.93
2017-07-21T04:19:58.003Z,1004.92
2017-07-21T04:20:57.933Z,1004.91
2017-07-21T04:21:58.000Z,1004.91
2017-07-21T04:22:57.978Z,1004.93
2017-07-21T04:23:57.931Z,1004.89
2017-07-21T04:24:57.966Z,1004.92
2017-07-21T04:25:57.960Z,1004.91
2017-07-21T04:26:57.970Z,1004.91
2017-07-21T04:27:57.956Z,1004.91
2017-07-21T04:28:57.964Z,1004.93
2017-07-21T04:29:57.934Z,1004.92
2017-07-21T04:30:58.007Z,1004.94
2017-07-21T04:31:57.988Z,1004.92
2017-07-21T04:32:57.969Z,1004.95
2017-07-21T04:33:57.939Z,1004.96
2017-07-21T04:34:58.028Z,1004.90
2017-07-21T04:35:57.968Z,1004.87
2017-07-21T04:36:58.021Z,1004.86
2017-07-21T04:37:57.967Z,1004.82
2017-07-21T04:38:57.998Z,1004.87
2017-07-21T04:39:58.013Z,1004.90
2017-07-21T04:40:57.944Z,1004.82
2017-07-21T04:41:58.046Z,1004.86
2017-07-21T04:42:58.014Z,1004.81
2017-07-21T04:43:58.006Z,1004.86
2017-07-21T04:44:57.975Z,1004.84
2017-07-21T04:45:57.974Z,1004.88
2017-07-21T04:46:57.944Z,1004.89
2017-07-21T04:47:57.957Z,1004.86
2017-07-21T04:48:57.964Z,1004.91
2017-07-21T04:49:57.961Z,1004.91
2017-07-21T04:50:57.971Z,1004.86
2017-07-21T04:51:57.953Z,1004.91
2017-07-21T04:52:57.951Z,1004.87
2017-07-21T04:53:58.212Z,1004.84
2017-07-21T04:54:57.922Z,1004.86
2017-07-21T04:55:57.965Z,1004.93
2017-07-21T04:56:58.086Z,1004.96
2017-07-21T04:57:57.939Z,1004.92
2017-07-21T04:58:57.980Z,1004.97
2017-07-21T04:59:57.948Z,1004.99
2017-07-21T05:00:57.979Z,1004.97
2017-07-21T05:01:57.957Z,1005.01
2017-07-21T05:02:58.011Z,1005.00
2017-07-21T05:03:58.010Z,1005.06
2017-07-21T05:04:58.026Z,1005.06
2017-07-21T05:05:57.978Z,1005.11
2017-07-21T05:06:57.984Z,1005.06
2017-07-21T05:07:58.041Z,1005.07
2017-07-21T05:08:57.965Z,1005.05
2017-07-21T05:09:57.993Z,1005.04
2017-07-21T05:10:57.965Z,1005.04
2017-07-21T05:11:57.962Z,1005.05
2017-07-21T05:12:58.016Z,1005.08
2017-07-21T05:13:57.957Z,1005.06
2017-07-21T05:14:58.056Z,1005.08
2017-07-21T05:15:58.025Z,1005.09
2017-07-21T05:16:57.977Z,1005.08
2017-07-21T05:17:57.982Z,1005.09
2017-07-21T05:18:57.949Z,1005.06
2017-07-21T05:19:57.980Z,1005.06
2017-07-21T05:20:57.952Z,1005.09
2017-07-21T05:21:57.984Z,1005.05
2017-07-21T05:22:58.019Z,1005.08
2017-07-21T05:23:57.985Z,1005.06
2017-07-21T05:24:57.951Z,1005.07
2017-07-21T05:25:57.997Z,1005.05
2017-07-21T05:26:58.024Z,1005.09
2017-07-21T05:27:57.955Z,1005.09
2017-07-21T05:28:57.956Z,1005.11
2017-07-21T05:29:58.018Z,1005.17
2017-07-21T05:30:58.023Z,1005.14
2017-07-21T05:31:58.020Z,1005.12
2017-07-21T05:32:57.985Z,1005.12
2017-07-21T05:33:57.964Z,1005.10
2017-07-21T05:34:57.959Z,1005.14
2017-07-21T05:35:57.960Z,1005.13
2017-07-21T05:36:57.969Z,1005.11
2017-07-21T05:37:57.971Z,1005.12
2017-07-21T05:38:57.970Z,1005.15
2017-07-21T05:39:57.994Z,1005.11
2017-07-21T05:40:57.974Z,1005.12
2017-07-21T05:41:57.989Z,1005.12
2017-07-21T05:42:58.044Z,1005.12
2017-07-21T05:43:58.041Z,1005.11
2017-07-21T05:44:57.970Z,1005.14
2017-07-21T05:45:57.948Z,1005.14
2017-07-21T05:46:58.072Z,1005.14
2017-07-21T05:47:58.009Z,1005.19
2017-07-21T05:48:57.998Z,1005.21
2017-07-21T05:49:58.069Z,1005.17
2017-07-21T05:50:58.015Z,1005.22
2017-07-21T05:51:58.051Z,1005.18
2017-07-21T05:52:57.982Z,1005.22
2017-07-21T05:53:58.011Z,1005.26
2017-07-21T05:54:57.980Z,1005.28
2017-07-21T05:55:58.073Z,1005.25
2017-07-21T05:56:57.979Z,1005.24
2017-07-21T05:57:58.007Z,1005.24
2017-07-21T05:58:58.024Z,1005.29
2017-07-21T05:59:58.076Z,1005.31
2017-07-21T06:00:58.040Z,1005.30
2017-07-21T06:01:57.983Z,1005.36
2017-07-21T06:02:57.986Z,1005.38
2017-07-21T06:03:57.986Z,1005.35
2017-07-21T06:04:57.985Z,1005.36
2017-07-21T06:05:58.044Z,1005.36
2017-07-21T06:06:57.989Z,1005.40
2017-07-21T06:07:57.962Z,1005.46
2017-07-21T06:08:57.924Z,1005.39
2017-07-21T06:09:58.006Z,1005.44
2017-07-21T06:10:57.951Z,1005.43
2017-07-21T06:11:57.985Z,1005.42
2017-07-21T06:12:57.969Z,1005.49
2017-07-21T06:13:58.037Z,1005.47
2017-07-21T06:14:58.004Z,1005.41
2017-07-21T06:15:57.987Z,1005.47
2017-07-21T06:16:58.017Z,1005.46
2017-07-21T06:17:58.016Z,1005.47
2017-07-21T06:18:58.016Z,1005.45
2017-07-21T06:19:57.989Z,1005.46
2017-07-21T06:20:57.986Z,1005.46
2017-07-21T06:21:57.992Z,1005.50
2017-07-21T06:22:58.019Z,1005.40
2017-07-21T06:23:58.076Z,1005.45
2017-07-21T06:24:57.985Z,1005.46
2017-07-21T06:25:58.024Z,1005.45
2017-07-21T06:26:57.989Z,1005.44
2017-07-21T06:27:58.023Z,1005.48
2017-07-21T06:28:58.057Z,1005.45
2017-07-21T06:29:58.054Z,1005.45
2017-07-21T06:30:58.055Z,1005.46
2017-07-21T06:31:58.025Z,1005.51
2017-07-21T06:32:58.024Z,1005.47
2017-07-21T06:33:58.059Z,1005.48
2017-07-21T06:34:58.000Z,1005.52
2017-07-21T06:35:58.059Z,1005.51
2017-07-21T06:36:58.077Z,1005.53
2017-07-21T06:37:58.013Z,1005.53
2017-07-21T06:38:58.029Z,1005.56
2017-07-21T06:39:58.026Z,1005.53
2017-07-21T06:40:58.016Z,1005.53
2017-07-21T06:41:58.026Z,1005.58
2017-07-21T06:42:58.011Z,1005.58
2017-07-21T06:43:58.036Z,1005.58
2017-07-21T06:44:58.023Z,1005.57
2017-07-21T06:45:58.018Z,1005.63
2017-07-21T06:46:58.104Z,1005.63
2017-07-21T06:47:58.072Z,1005.62
2017-07-21T06:48:58.100Z,1005.60
2017-07-21T06:49:58.013Z,1005.58
2017-07-21T06:50:58.049Z,1005.62
2017-07-21T06:51:58.012Z,1005.56
2017-07-21T06:52:58.040Z,1005.63
2017-07-21T06:53:58.099Z,1005.65
2017-07-21T06:54:58.080Z,1005.62
2017-07-21T06:55:58.055Z,1005.63
2017-07-21T06:56:58.130Z,1005.66
2017-07-21T06:57:58.004Z,1005.62
2017-07-21T06:58:58.075Z,1005.68
2017-07-21T06:59:58.074Z,1005.67
2017-07-21T07:00:58.008Z,1005.62
2017-07-21T07:01:58.041Z,1005.72
2017-07-21T07:02:58.072Z,1005.67
2017-07-21T07:03:58.039Z,1005.68
2017-07-21T07:04:58.076Z,1005.72
2017-07-21T07:05:58.048Z,1005.72
2017-07-21T07:06:58.084Z,1005.68
2017-07-21T07:07:58.045Z,1005.73
2017-07-21T07:08:58.045Z,1005.72
2017-07-21T07:09:58.002Z,1005.72
2017-07-21T07:10:58.045Z,1005.71
2017-07-21T07:11:58.047Z,1005.76
2017-07-21T07:12:58.039Z,1005.79
2017-07-21T07:13:57.999Z,1005.81
2017-07-21T07:14:58.048Z,1005.84
2017-07-21T07:15:58.034Z,1005.82
2017-07-21T07:16:58.157Z,1005.85
2017-07-21T07:17:58.066Z,1005.83
2017-07-21T07:18:58.035Z,1005.80
2017-07-21T07:19:58.053Z,1005.85
2017-07-21T07:20:58.066Z,1005.85
2017-07-21T07:21:58.124Z,1005.87
2017-07-21T07:22:58.035Z,1005.82
2017-07-21T07:23:58.136Z,1005.83
2017-07-21T07:24:58.032Z,1005.80
2017-07-21T07:25:58.033Z,1005.85
2017-07-21T07:26:58.026Z,1005.85
2017-07-21T07:27:58.087Z,1005.84
2017-07-21T07:28:58.024Z,1005.86
2017-07-21T07:29:58.085Z,1005.81
2017-07-21T07:30:58.125Z,1005.80
2017-07-21T07:31:58.054Z,1005.77
2017-07-21T07:32:58.025Z,1005.81
2017-07-21T07:33:58.060Z,1005.83
2017-07-21T07:34:58.056Z,1005.82
2017-07-21T07:35:58.090Z,1005.89
2017-07-21T07:36:58.068Z,1005.85
2017-07-21T07:37:58.062Z,1005.88
2017-07-21T07:38:58.061Z,1005.87
2017-07-21T07:39:58.032Z,1005.89
2017-07-21T07:40:58.101Z,1005.89
2017-07-21T07:41:58.097Z,1005.88
2017-07-21T07:43:58.099Z,1005.88
2017-07-21T07:44:58.221Z,1005.81
2017-07-21T07:45:58.100Z,1005.78
2017-07-21T07:46:58.100Z,1005.82
2017-07-21T07:47:58.100Z,1005.86
2017-07-21T07:48:58.074Z,1005.81
2017-07-21T07:49:58.075Z,1005.82
2017-07-21T07:50:58.101Z,1005.79
2017-07-21T07:51:58.103Z,1005.82
2017-07-21T07:52:58.073Z,1005.80
2017-07-21T07:53:58.072Z,1005.80
2017-07-21T07:54:58.104Z,1005.79
2017-07-21T07:55:58.104Z,1005.72
2017-07-21T07:56:58.122Z,1005.77
2017-07-21T07:57:58.117Z,1005.75
2017-07-21T07:58:58.078Z,1005.76
2017-07-21T07:59:58.087Z,1005.78
2017-07-21T08:00:58.126Z,1005.82
2017-07-21T08:01:58.121Z,1005.84
2017-07-21T08:02:58.092Z,1005.84
2017-07-21T08:03:58.110Z,1005.86
2017-07-21T08:04:58.054Z,1005.87
2017-07-21T08:05:58.063Z,1005.82
2017-07-21T08:06:58.089Z,1005.87
2017-07-21T08:07:58.125Z,1005.87
2017-07-21T08:08:58.155Z,1005.88
2017-07-21T08:09:58.089Z,1005.88
2017-07-21T08:10:58.064Z,1005.88
2017-07-21T08:11:58.126Z,1005.86
2017-07-21T08:12:58.070Z,1005.85
2017-07-21T08:13:58.118Z,1005.84
2017-07-21T08:14:58.102Z,1005.89
2017-07-21T08:15:58.127Z,1005.82
2017-07-21T08:16:58.095Z,1005.83
2017-07-21T08:17:58.123Z,1005.84
2017-07-21T08:18:58.131Z,1005.85
2017-07-21T08:19:58.136Z,1005.86
2017-07-21T08:20:58.166Z,1005.86
2017-07-21T08:21:58.089Z,1005.85
2017-07-21T08:22:58.164Z,1005.83
2017-07-21T08:23:58.070Z,1005.79
2017-07-21T08:24:58.128Z,1005.84
2017-07-21T08:25:58.145Z,1005.84
2017-07-21T08:26:58.069Z,1005.82
2017-07-21T08:27:58.058Z,1005.86
2017-07-21T08:28:58.092Z,1005.83
2017-07-21T08:29:58.122Z,1005.86
2017-07-21T08:30:58.060Z,1005.87
2017-07-21T08:31:58.091Z,1005.83
2017-07-21T08:32:58.090Z,1005.86
2017-07-21T08:33:58.094Z,1005.91
2017-07-21T08:34:58.089Z,1005.86
2017-07-21T08:35:58.084Z,1005.92
2017-07-21T08:36:58.125Z,1005.86
2017-07-21T08:37:58.069Z,1005.93
2017-07-21T08:38:58.132Z,1005.90
2017-07-21T08:39:58.073Z,1005.88
2017-07-21T08:40:58.100Z,1005.93
2017-07-21T08:41:58.098Z,1005.94
2017-07-21T08:42:58.133Z,1005.93
2017-07-21T08:43:58.065Z,1005.94
2017-07-21T08:44:58.096Z,1005.98
2017-07-21T08:45:58.072Z,1005.92
2017-07-21T08:46:58.100Z,1005.90
2017-07-21T08:47:58.169Z,1005.92
2017-07-21T08:48:58.142Z,1005.86
2017-07-21T08:49:58.085Z,1005.88
2017-07-21T08:50:58.158Z,1005.88
2017-07-21T08:51:58.120Z,1005.84
2017-07-21T08:52:58.182Z,1005.82
2017-07-21T08:53:58.084Z,1005.81
2017-07-21T08:54:58.119Z,1005.80
2017-07-21T08:55:58.160Z,1005.78
2017-07-21T08:56:58.126Z,1005.79
2017-07-21T08:57:58.085Z,1005.79
2017-07-21T08:58:58.112Z,1005.78
2017-07-21T08:59:58.108Z,1005.82
2017-07-21T09:00:58.088Z,1005.78
2017-07-21T09:01:58.090Z,1005.77
2017-07-21T09:02:58.042Z,1005.75
2017-07-21T09:03:58.152Z,1005.79
2017-07-21T09:04:58.043Z,1005.81
2017-07-21T09:05:58.058Z,1005.78
2017-07-21T09:06:58.088Z,1005.77
2017-07-21T09:07:58.126Z,1005.77
2017-07-21T09:08:58.182Z,1005.77
2017-07-21T09:09:58.089Z,1005.80
2017-07-21T09:10:58.131Z,1005.75
2017-07-21T09:11:58.107Z,1005.76
2017-07-21T09:12:58.186Z,1005.72
2017-07-21T09:13:58.102Z,1005.77
2017-07-21T09:14:58.091Z,1005.74
2017-07-21T09:15:58.093Z,1005.78
2017-07-21T09:16:58.192Z,1005.73
2017-07-21T09:17:58.257Z,1005.74
2017-07-21T09:18:58.196Z,1005.73
2017-07-21T09:19:58.135Z,1005.69
2017-07-21T09:20:58.133Z,1005.69
2017-07-21T09:21:58.103Z,1005.69
2017-07-21T09:22:58.197Z,1005.65
2017-07-21T09:23:58.132Z,1005.70
2017-07-21T09:24:58.172Z,1005.65
2017-07-21T09:25:58.127Z,1005.65
2017-07-21T09:26:58.136Z,1005.59
2017-07-21T09:27:58.111Z,1005.63
2017-07-21T09:28:58.126Z,1005.62
2017-07-21T09:29:58.144Z,1005.59
2017-07-21T09:30:58.170Z,1005.54
2017-07-21T09:31:58.108Z,1005.55
2017-07-21T09:32:58.143Z,1005.57
2017-07-21T09:33:58.139Z,1005.53
2017-07-21T09:34:58.112Z,1005.58
2017-07-21T09:35:58.142Z,1005.53
2017-07-21T09:36:58.161Z,1005.46
2017-07-21T09:37:59.313Z,1005.53
2017-07-21T09:38:58.185Z,1005.57
2017-07-21T09:39:58.141Z,1005.61
2017-07-21T09:40:58.132Z,1005.58
2017-07-21T09:41:58.150Z,1005.57
2017-07-21T09:42:58.121Z,1005.52
2017-07-21T09:43:58.243Z,1005.48
2017-07-21T09:44:58.126Z,1005.54
2017-07-21T09:45:58.152Z,1005.55
2017-07-21T09:46:58.176Z,1005.54
2017-07-21T09:47:58.139Z,1005.51
2017-07-21T09:48:58.171Z,1005.54
2017-07-21T09:49:58.122Z,1005.52
2017-07-21T09:50:58.190Z,1005.50
2017-07-21T09:51:58.209Z,1005.55
2017-07-21T09:52:58.124Z,1005.53
2017-07-21T09:53:58.123Z,1005.54
2017-07-21T09:54:58.154Z,1005.53
2017-07-21T09:55:58.147Z,1005.52
2017-07-21T09:56:58.219Z,1005.50
2017-07-21T09:57:58.052Z,1005.57
2017-07-21T09:58:58.125Z,1005.57
2017-07-21T09:59:58.050Z,1005.56
2017-07-21T10:00:58.080Z,1005.53
2017-07-21T10:01:58.119Z,1005.54
2017-07-21T10:02:58.116Z,1005.47
2017-07-21T10:03:58.108Z,1005.43
2017-07-21T10:04:58.091Z,1005.44
2017-07-21T10:05:58.037Z,1005.47
2017-07-21T10:06:58.129Z,1005.48
2017-07-21T10:07:58.265Z,1005.46
2017-07-21T10:08:58.217Z,1005.46
2017-07-21T10:09:58.132Z,1005.46
2017-07-21T10:10:58.162Z,1005.44
2017-07-21T10:11:58.193Z,1005.42
2017-07-21T10:12:58.148Z,1005.43
2017-07-21T10:13:58.130Z,1005.42
2017-07-21T10:14:58.160Z,1005.42
2017-07-21T10:15:58.135Z,1005.43
2017-07-21T10:16:58.193Z,1005.42
2017-07-21T10:17:58.204Z,1005.39
2017-07-21T10:18:58.271Z,1005.42
2017-07-21T10:19:58.157Z,1005.40
2017-07-21T10:20:58.205Z,1005.35
2017-07-21T10:21:58.232Z,1005.35
2017-07-21T10:22:58.193Z,1005.37
2017-07-21T10:23:58.192Z,1005.38
2017-07-21T10:24:58.132Z,1005.36
2017-07-21T10:25:58.142Z,1005.34
2017-07-21T10:26:58.168Z,1005.33
2017-07-21T10:27:58.160Z,1005.34
2017-07-21T10:28:58.163Z,1005.34
2017-07-21T10:29:58.194Z,1005.27
2017-07-21T10:30:58.163Z,1005.30
2017-07-21T10:31:58.136Z,1005.29
2017-07-21T10:32:58.130Z,1005.29
2017-07-21T10:33:58.199Z,1005.32
2017-07-21T10:34:58.135Z,1005.32
2017-07-21T10:35:58.131Z,1005.31
2017-07-21T10:36:58.233Z,1005.30
2017-07-21T10:37:58.175Z,1005.31
2017-07-21T10:38:58.170Z,1005.29
2017-07-21T10:39:58.180Z,1005.32
2017-07-21T10:40:58.182Z,1005.29
2017-07-21T10:41:58.173Z,1005.26
2017-07-21T10:42:58.242Z,1005.27
2017-07-21T10:43:58.225Z,1005.23
2017-07-21T10:44:58.210Z,1005.26
2017-07-21T10:45:58.175Z,1005.19
2017-07-21T10:46:58.157Z,1005.22
2017-07-21T10:47:58.137Z,1005.18
2017-07-21T10:48:58.214Z,1005.17
2017-07-21T10:49:58.205Z,1005.17
2017-07-21T10:50:58.141Z,1005.18
2017-07-21T10:51:58.178Z,1005.16
2017-07-21T10:52:58.177Z,1005.19
2017-07-21T10:53:58.176Z,1005.14
2017-07-21T10:54:58.186Z,1005.15
2017-07-21T10:55:58.145Z,1005.12
2017-07-21T10:56:58.173Z,1005.09
2017-07-21T10:57:58.209Z,1005.07
2017-07-21T10:58:58.212Z,1005.06
2017-07-21T10:59:58.148Z,1005.08
2017-07-21T11:00:58.149Z,1005.03
2017-07-21T11:01:58.149Z,1005.06
2017-07-21T11:02:58.182Z,1005.05
2017-07-21T11:03:58.218Z,1005.08
2017-07-21T11:04:58.148Z,1005.01
2017-07-21T11:05:58.186Z,1004.99
2017-07-21T11:06:58.153Z,1004.96
2017-07-21T11:07:58.181Z,1004.97
2017-07-21T11:08:58.184Z,1004.95
2017-07-21T11:09:58.223Z,1005.00
2017-07-21T11:10:58.171Z,1004.98
2017-07-21T11:11:58.230Z,1004.92
2017-07-21T11:12:58.166Z,1004.94
2017-07-21T11:13:58.161Z,1004.94
2017-07-21T11:14:58.166Z,1004.91
2017-07-21T11:15:58.140Z,1004.91
2017-07-21T11:16:58.176Z,1004.90
2017-07-21T11:17:58.158Z,1004.88
2017-07-21T11:18:58.191Z,1004.88
2017-07-21T11:19:58.227Z,1004.85
2017-07-21T11:20:58.195Z,1004.87
2017-07-21T11:21:58.161Z,1004.82
2017-07-21T11:22:58.165Z,1004.81
2017-07-21T11:23:58.163Z,1004.81
2017-07-21T11:24:58.188Z,1004.82
2017-07-21T11:25:58.196Z,1004.79
2017-07-21T11:26:58.195Z,1004.79
2017-07-21T11:27:58.175Z,1004.81
2017-07-21T11:28:58.208Z,1004.80
2017-07-21T11:29:58.172Z,1004.78
2017-07-21T11:30:58.262Z,1004.82
2017-07-21T11:31:58.268Z,1004.73
2017-07-21T11:32:58.264Z,1004.77
2017-07-21T11:33:58.208Z,1004.69
2017-07-21T11:34:58.194Z,1004.72
2017-07-21T11:35:58.237Z,1004.68
2017-07-21T11:36:58.177Z,1004.74
2017-07-21T11:37:58.128Z,1004.67
2017-07-21T11:38:58.144Z,1004.70
2017-07-21T11:39:58.157Z,1004.68
2017-07-21T11:40:58.214Z,1004.64
2017-07-21T11:41:58.194Z,1004.70
2017-07-21T11:42:58.185Z,1004.65
2017-07-21T11:43:58.189Z,1004.67
2017-07-21T11:44:58.210Z,1004.64
2017-07-21T11:45:58.209Z,1004.68
2017-07-21T11:46:58.179Z,1004.67
2017-07-21T11:47:58.171Z,1004.66
2017-07-21T11:48:58.179Z,1004.61
2017-07-21T11:49:58.234Z,1004.62
2017-07-21T11:50:58.204Z,1004.58
2017-07-21T11:51:58.238Z,1004.63
2017-07-21T11:52:58.238Z,1004.56
2017-07-21T11:53:58.211Z,1004.55
2017-07-21T11:54:58.238Z,1004.58
2017-07-21T11:55:58.207Z,1004.61
2017-07-21T11:56:58.208Z,1004.59
2017-07-21T11:57:58.210Z,1004.64
2017-07-21T11:58:58.285Z,1004.61
2017-07-21T11:59:58.230Z,1004.61
2017-07-21T12:00:58.188Z,1004.59
2017-07-21T12:01:58.281Z,1004.58
2017-07-21T12:02:58.219Z,1004.56
2017-07-21T12:03:58.191Z,1004.54
2017-07-21T12:04:58.217Z,1004.57
2017-07-21T12:05:58.246Z,1004.53
2017-07-21T12:06:58.219Z,1004.55
2017-07-21T12:07:58.255Z,1004.48